sensor_id;sensor_type;location;lat;lon;timestamp;temperature;humidity
21275;DHT22;36472;52.170;20.884;2023-05-19T00:00:26;29.10;44.80
21275;DHT22;36472;52.170;20.884;2023-05-19T00:03:18;29.10;44.80
21275;DHT22;36472;52.170;20.884;2023-05-19T00:05:48;29.10;44.70
21275;DHT22;36472;52.170;20.884;2023-05-19T00:08:22;29.10;45.10
21275;DHT22;36472;52.170;20.884;2023-05-19T00:10:52;29.10;44.80
21275;DHT22;36472;52.170;20.884;2023-05-19T00:13:24;29.00;44.60
21275;DHT22;36472;52.170;20.884;2023-05-19T00:15:53;29.00;44.80
21275;DHT22;36472;52.170;20.884;2023-05-19T00:18:22;29.00;44.50
21275;DHT22;36472;52.170;20.884;2023-05-19T00:20:52;29.00;44.70
21275;DHT22;36472;52.170;20.884;2023-05-19T00:23:22;29.00;44.80
21275;DHT22;36472;52.170;20.884;2023-05-19T00:25:50;29.00;44.80
21275;DHT22;36472;52.170;20.884;2023-05-19T00:28:20;29.00;45.10
21275;DHT22;36472;52.170;20.884;2023-05-19T00:30:51;29.00;45.20
21275;DHT22;36472;52.170;20.884;2023-05-19T00:33:20;29.00;44.90
21275;DHT22;36472;52.170;20.884;2023-05-19T00:35:49;29.00;44.70
21275;DHT22;36472;52.170;20.884;2023-05-19T00:38:19;29.00;45.00
21275;DHT22;36472;52.170;20.884;2023-05-19T00:40:48;28.90;45.20
21275;DHT22;36472;52.170;20.884;2023-05-19T00:43:18;28.90;45.10
21275;DHT22;36472;52.170;20.884;2023-05-19T00:45:46;28.90;44.70
21275;DHT22;36472;52.170;20.884;2023-05-19T00:48:17;28.80;44.90
21275;DHT22;36472;52.170;20.884;2023-05-19T00:50:47;28.80;44.60
21275;DHT22;36472;52.170;20.884;2023-05-19T00:53:17;28.80;44.20
21275;DHT22;36472;52.170;20.884;2023-05-19T00:55:47;28.80;43.80
21275;DHT22;36472;52.170;20.884;2023-05-19T00:58:17;28.70;43.40
21275;DHT22;36472;52.170;20.884;2023-05-19T01:00:46;28.80;43.60
21275;DHT22;36472;52.170;20.884;2023-05-19T01:03:17;28.70;43.50
21275;DHT22;36472;52.170;20.884;2023-05-19T01:05:47;28.70;43.50
21275;DHT22;36472;52.170;20.884;2023-05-19T01:08:16;28.80;43.60
21275;DHT22;36472;52.170;20.884;2023-05-19T01:10:45;28.70;43.40
21275;DHT22;36472;52.170;20.884;2023-05-19T01:13:14;28.70;43.70
21275;DHT22;36472;52.170;20.884;2023-05-19T01:15:56;28.70;43.90
21275;DHT22;36472;52.170;20.884;2023-05-19T01:18:38;28.70;43.60
21275;DHT22;36472;52.170;20.884;2023-05-19T01:21:33;28.70;43.70
21275;DHT22;36472;52.170;20.884;2023-05-19T01:24:37;28.70;43.70
21275;DHT22;36472;52.170;20.884;2023-05-19T01:27:41;28.70;44.10
21275;DHT22;36472;52.170;20.884;2023-05-19T01:30:29;28.70;44.00
21275;DHT22;36472;52.170;20.884;2023-05-19T01:33:03;28.70;44.00
21275;DHT22;36472;52.170;20.884;2023-05-19T01:35:36;28.70;43.80
21275;DHT22;36472;52.170;20.884;2023-05-19T01:38:08;28.80;44.00
21275;DHT22;36472;52.170;20.884;2023-05-19T01:40:40;28.70;43.90
21275;DHT22;36472;52.170;20.884;2023-05-19T01:43:12;28.80;44.10
21275;DHT22;36472;52.170;20.884;2023-05-19T01:45:45;28.80;44.40
21275;DHT22;36472;52.170;20.884;2023-05-19T01:48:15;28.70;43.80
21275;DHT22;36472;52.170;20.884;2023-05-19T01:50:45;28.70;43.90
21275;DHT22;36472;52.170;20.884;2023-05-19T01:53:14;28.70;44.70
21275;DHT22;36472;52.170;20.884;2023-05-19T01:55:46;28.80;44.00
21275;DHT22;36472;52.170;20.884;2023-05-19T01:58:30;28.70;44.00
21275;DHT22;36472;52.170;20.884;2023-05-19T02:01:10;28.70;44.10
21275;DHT22;36472;52.170;20.884;2023-05-19T02:04:04;28.70;44.20
21275;DHT22;36472;52.170;20.884;2023-05-19T02:06:54;28.80;44.30
21275;DHT22;36472;52.170;20.884;2023-05-19T02:09:37;28.80;44.30
21275;DHT22;36472;52.170;20.884;2023-05-19T02:12:13;28.80;44.40
21275;DHT22;36472;52.170;20.884;2023-05-19T02:14:51;28.80;44.50
21275;DHT22;36472;52.170;20.884;2023-05-19T02:17:26;28.80;44.30
21275;DHT22;36472;52.170;20.884;2023-05-19T02:19:59;28.80;44.30
21275;DHT22;36472;52.170;20.884;2023-05-19T02:22:28;28.70;44.20
21275;DHT22;36472;52.170;20.884;2023-05-19T02:24:57;28.70;44.30
21275;DHT22;36472;52.170;20.884;2023-05-19T02:27:26;28.70;44.40
21275;DHT22;36472;52.170;20.884;2023-05-19T02:29:56;28.70;44.50
21275;DHT22;36472;52.170;20.884;2023-05-19T02:32:26;28.70;44.60
21275;DHT22;36472;52.170;20.884;2023-05-19T02:34:55;28.70;44.50
21275;DHT22;36472;52.170;20.884;2023-05-19T02:37:24;28.70;44.70
21275;DHT22;36472;52.170;20.884;2023-05-19T02:39:54;28.70;44.50
21275;DHT22;36472;52.170;20.884;2023-05-19T02:42:23;28.70;44.60
21275;DHT22;36472;52.170;20.884;2023-05-19T02:44:54;28.70;45.00
21275;DHT22;36472;52.170;20.884;2023-05-19T02:47:23;28.70;44.90
21275;DHT22;36472;52.170;20.884;2023-05-19T02:49:53;28.70;45.10
21275;DHT22;36472;52.170;20.884;2023-05-19T02:52:22;28.70;45.00
21275;DHT22;36472;52.170;20.884;2023-05-19T02:54:51;28.70;45.00
21275;DHT22;36472;52.170;20.884;2023-05-19T02:57:20;28.70;45.10
21275;DHT22;36472;52.170;20.884;2023-05-19T02:59:49;28.70;45.30
21275;DHT22;36472;52.170;20.884;2023-05-19T03:02:18;28.70;45.20
21275;DHT22;36472;52.170;20.884;2023-05-19T03:04:47;28.70;45.30
21275;DHT22;36472;52.170;20.884;2023-05-19T03:07:18;28.70;45.40
21275;DHT22;36472;52.170;20.884;2023-05-19T03:09:51;28.70;45.90
21275;DHT22;36472;52.170;20.884;2023-05-19T03:12:20;28.70;45.50
21275;DHT22;36472;52.170;20.884;2023-05-19T03:14:49;28.60;45.30
21275;DHT22;36472;52.170;20.884;2023-05-19T03:17:18;28.60;45.50
21275;DHT22;36472;52.170;20.884;2023-05-19T03:19:47;28.60;45.50
21275;DHT22;36472;52.170;20.884;2023-05-19T03:22:19;28.60;45.60
21275;DHT22;36472;52.170;20.884;2023-05-19T03:24:48;28.60;45.60
21275;DHT22;36472;52.170;20.884;2023-05-19T03:27:18;28.60;45.60
21275;DHT22;36472;52.170;20.884;2023-05-19T03:29:46;28.60;45.90
21275;DHT22;36472;52.170;20.884;2023-05-19T03:32:16;28.60;46.10
21275;DHT22;36472;52.170;20.884;2023-05-19T03:34:46;28.60;46.10
21275;DHT22;36472;52.170;20.884;2023-05-19T03:37:15;28.60;46.10
21275;DHT22;36472;52.170;20.884;2023-05-19T03:39:46;28.60;46.40
21275;DHT22;36472;52.170;20.884;2023-05-19T03:42:15;28.60;46.40
21275;DHT22;36472;52.170;20.884;2023-05-19T03:44:44;28.60;46.60
21275;DHT22;36472;52.170;20.884;2023-05-19T03:47:13;28.60;46.40
21275;DHT22;36472;52.170;20.884;2023-05-19T03:50:06;28.60;46.50
21275;DHT22;36472;52.170;20.884;2023-05-19T03:52:49;28.60;46.60
21275;DHT22;36472;52.170;20.884;2023-05-19T03:55:28;28.60;46.70
21275;DHT22;36472;52.170;20.884;2023-05-19T03:57:57;28.60;46.60
21275;DHT22;36472;52.170;20.884;2023-05-19T04:00:26;28.60;46.90
21275;DHT22;36472;52.170;20.884;2023-05-19T04:02:55;28.60;47.00
21275;DHT22;36472;52.170;20.884;2023-05-19T04:05:24;28.60;47.00
21275;DHT22;36472;52.170;20.884;2023-05-19T04:07:53;28.60;47.00
21275;DHT22;36472;52.170;20.884;2023-05-19T04:10:22;28.60;47.00
21275;DHT22;36472;52.170;20.884;2023-05-19T04:12:55;28.60;47.00
21275;DHT22;36472;52.170;20.884;2023-05-19T04:15:25;28.60;47.00
21275;DHT22;36472;52.170;20.884;2023-05-19T04:17:54;28.60;47.00
21275;DHT22;36472;52.170;20.884;2023-05-19T04:20:23;28.60;46.80
21275;DHT22;36472;52.170;20.884;2023-05-19T04:22:52;28.60;47.10
21275;DHT22;36472;52.170;20.884;2023-05-19T04:25:22;28.60;47.20
21275;DHT22;36472;52.170;20.884;2023-05-19T04:27:52;28.60;47.00
21275;DHT22;36472;52.170;20.884;2023-05-19T04:30:25;28.60;47.10
21275;DHT22;36472;52.170;20.884;2023-05-19T04:32:55;28.60;47.00
21275;DHT22;36472;52.170;20.884;2023-05-19T04:35:27;28.60;47.20
21275;DHT22;36472;52.170;20.884;2023-05-19T04:37:59;28.60;47.20
21275;DHT22;36472;52.170;20.884;2023-05-19T04:40:31;28.60;46.90
21275;DHT22;36472;52.170;20.884;2023-05-19T04:43:01;28.60;46.90
21275;DHT22;36472;52.170;20.884;2023-05-19T04:45:33;28.60;46.80
21275;DHT22;36472;52.170;20.884;2023-05-19T04:48:05;28.60;47.00
21275;DHT22;36472;52.170;20.884;2023-05-19T04:50:34;28.60;47.10
21275;DHT22;36472;52.170;20.884;2023-05-19T04:53:05;28.50;47.10
21275;DHT22;36472;52.170;20.884;2023-05-19T04:55:34;28.50;47.10
21275;DHT22;36472;52.170;20.884;2023-05-19T04:58:06;28.50;47.10
21275;DHT22;36472;52.170;20.884;2023-05-19T05:00:36;28.50;47.20
21275;DHT22;36472;52.170;20.884;2023-05-19T05:03:07;28.40;47.30
21275;DHT22;36472;52.170;20.884;2023-05-19T05:05:36;28.40;47.30
21275;DHT22;36472;52.170;20.884;2023-05-19T05:08:05;28.40;47.60
21275;DHT22;36472;52.170;20.884;2023-05-19T05:10:39;28.30;47.20
21275;DHT22;36472;52.170;20.884;2023-05-19T05:13:09;28.30;47.50
21275;DHT22;36472;52.170;20.884;2023-05-19T05:15:40;28.30;47.50
21275;DHT22;36472;52.170;20.884;2023-05-19T05:18:11;28.30;47.70
21275;DHT22;36472;52.170;20.884;2023-05-19T05:20:41;28.30;47.90
21275;DHT22;36472;52.170;20.884;2023-05-19T05:23:12;28.30;47.60
21275;DHT22;36472;52.170;20.884;2023-05-19T05:25:43;28.30;47.80
21275;DHT22;36472;52.170;20.884;2023-05-19T05:28:15;28.40;48.10
21275;DHT22;36472;52.170;20.884;2023-05-19T05:30:47;28.40;48.00
21275;DHT22;36472;52.170;20.884;2023-05-19T05:33:18;28.30;48.10
21275;DHT22;36472;52.170;20.884;2023-05-19T05:35:48;28.40;48.50
21275;DHT22;36472;52.170;20.884;2023-05-19T05:38:18;28.40;48.50
21275;DHT22;36472;52.170;20.884;2023-05-19T05:40:47;28.40;48.40
21275;DHT22;36472;52.170;20.884;2023-05-19T05:43:17;28.40;48.30
21275;DHT22;36472;52.170;20.884;2023-05-19T05:45:53;28.30;48.20
21275;DHT22;36472;52.170;20.884;2023-05-19T05:48:24;28.40;48.30
21275;DHT22;36472;52.170;20.884;2023-05-19T05:50:53;28.40;48.50
21275;DHT22;36472;52.170;20.884;2023-05-19T05:53:29;28.40;48.10
21275;DHT22;36472;52.170;20.884;2023-05-19T05:56:04;28.40;48.60
21275;DHT22;36472;52.170;20.884;2023-05-19T05:58:42;28.40;48.40
21275;DHT22;36472;52.170;20.884;2023-05-19T06:01:12;28.40;48.70
21275;DHT22;36472;52.170;20.884;2023-05-19T06:03:44;28.30;48.00
21275;DHT22;36472;52.170;20.884;2023-05-19T06:06:18;28.30;48.50
21275;DHT22;36472;52.170;20.884;2023-05-19T06:08:47;28.40;48.30
21275;DHT22;36472;52.170;20.884;2023-05-19T06:11:17;28.40;48.70
21275;DHT22;36472;52.170;20.884;2023-05-19T06:13:47;28.40;48.90
21275;DHT22;36472;52.170;20.884;2023-05-19T06:16:34;28.40;48.50
21275;DHT22;36472;52.170;20.884;2023-05-19T06:19:04;28.50;49.10
21275;DHT22;36472;52.170;20.884;2023-05-19T06:21:33;28.50;48.90
21275;DHT22;36472;52.170;20.884;2023-05-19T06:24:02;28.60;49.10
21275;DHT22;36472;52.170;20.884;2023-05-19T06:26:31;28.70;48.60
21275;DHT22;36472;52.170;20.884;2023-05-19T06:29:00;28.70;48.90
21275;DHT22;36472;52.170;20.884;2023-05-19T06:31:30;28.80;48.90
21275;DHT22;36472;52.170;20.884;2023-05-19T06:34:10;28.80;48.30
21275;DHT22;36472;52.170;20.884;2023-05-19T06:36:42;28.80;47.80
21275;DHT22;36472;52.170;20.884;2023-05-19T06:39:12;28.80;48.20
21275;DHT22;36472;52.170;20.884;2023-05-19T06:41:41;28.80;48.40
21275;DHT22;36472;52.170;20.884;2023-05-19T06:44:23;28.90;48.40
21275;DHT22;36472;52.170;20.884;2023-05-19T06:46:52;28.80;48.10
21275;DHT22;36472;52.170;20.884;2023-05-19T06:49:23;28.80;47.60
21275;DHT22;36472;52.170;20.884;2023-05-19T06:51:55;28.80;47.70
21275;DHT22;36472;52.170;20.884;2023-05-19T06:54:25;28.80;47.90
21275;DHT22;36472;52.170;20.884;2023-05-19T06:56:56;28.80;47.70
21275;DHT22;36472;52.170;20.884;2023-05-19T06:59:25;28.90;48.30
21275;DHT22;36472;52.170;20.884;2023-05-19T07:01:55;28.90;48.30
21275;DHT22;36472;52.170;20.884;2023-05-19T07:04:25;28.90;47.90
21275;DHT22;36472;52.170;20.884;2023-05-19T07:06:55;28.90;48.10
21275;DHT22;36472;52.170;20.884;2023-05-19T07:09:25;28.90;48.60
21275;DHT22;36472;52.170;20.884;2023-05-19T07:11:56;28.90;48.20
21275;DHT22;36472;52.170;20.884;2023-05-19T07:14:25;28.90;48.20
21275;DHT22;36472;52.170;20.884;2023-05-19T07:16:54;28.90;48.50
21275;DHT22;36472;52.170;20.884;2023-05-19T07:19:25;29.00;48.60
21275;DHT22;36472;52.170;20.884;2023-05-19T07:21:54;29.00;48.90
21275;DHT22;36472;52.170;20.884;2023-05-19T07:24:25;29.00;48.40
21275;DHT22;36472;52.170;20.884;2023-05-19T07:26:55;29.00;47.90
21275;DHT22;36472;52.170;20.884;2023-05-19T07:29:25;29.00;48.20
21275;DHT22;36472;52.170;20.884;2023-05-19T07:31:54;29.10;48.20
21275;DHT22;36472;52.170;20.884;2023-05-19T07:34:26;29.10;47.70
21275;DHT22;36472;52.170;20.884;2023-05-19T07:36:55;29.10;48.40
21275;DHT22;36472;52.170;20.884;2023-05-19T07:39:24;29.00;47.80
21275;DHT22;36472;52.170;20.884;2023-05-19T07:41:56;29.00;48.20
21275;DHT22;36472;52.170;20.884;2023-05-19T07:44:26;29.10;48.30
21275;DHT22;36472;52.170;20.884;2023-05-19T07:46:57;29.00;47.90
21275;DHT22;36472;52.170;20.884;2023-05-19T07:49:28;29.00;48.20
21275;DHT22;36472;52.170;20.884;2023-05-19T07:51:57;29.00;48.50
21275;DHT22;36472;52.170;20.884;2023-05-19T07:54:26;29.00;48.00
21275;DHT22;36472;52.170;20.884;2023-05-19T07:56:55;28.90;47.50
21275;DHT22;36472;52.170;20.884;2023-05-19T07:59:25;29.00;47.90
21275;DHT22;36472;52.170;20.884;2023-05-19T08:01:54;29.00;48.40
21275;DHT22;36472;52.170;20.884;2023-05-19T08:04:23;29.00;48.30
21275;DHT22;36472;52.170;20.884;2023-05-19T08:06:53;29.10;48.50
21275;DHT22;36472;52.170;20.884;2023-05-19T08:09:23;29.10;48.60
21275;DHT22;36472;52.170;20.884;2023-05-19T08:11:52;29.10;48.30
21275;DHT22;36472;52.170;20.884;2023-05-19T08:14:21;29.10;48.30
21275;DHT22;36472;52.170;20.884;2023-05-19T08:16:50;29.10;48.10
21275;DHT22;36472;52.170;20.884;2023-05-19T08:19:20;29.10;47.80
21275;DHT22;36472;52.170;20.884;2023-05-19T08:21:49;29.10;47.90
21275;DHT22;36472;52.170;20.884;2023-05-19T08:24:19;29.10;47.70
21275;DHT22;36472;52.170;20.884;2023-05-19T08:26:49;29.20;47.80
21275;DHT22;36472;52.170;20.884;2023-05-19T08:29:18;29.20;48.20
21275;DHT22;36472;52.170;20.884;2023-05-19T08:31:47;29.20;47.90
21275;DHT22;36472;52.170;20.884;2023-05-19T08:34:16;29.20;47.70
21275;DHT22;36472;52.170;20.884;2023-05-19T08:36:45;29.30;47.30
21275;DHT22;36472;52.170;20.884;2023-05-19T08:39:15;29.20;47.80
21275;DHT22;36472;52.170;20.884;2023-05-19T08:41:47;29.20;47.50
21275;DHT22;36472;52.170;20.884;2023-05-19T08:44:16;29.20;47.30
21275;DHT22;36472;52.170;20.884;2023-05-19T08:46:46;29.20;46.90
21275;DHT22;36472;52.170;20.884;2023-05-19T08:49:21;29.20;47.30
21275;DHT22;36472;52.170;20.884;2023-05-19T08:51:59;29.20;47.60
21275;DHT22;36472;52.170;20.884;2023-05-19T08:54:39;29.20;47.40
21275;DHT22;36472;52.170;20.884;2023-05-19T08:57:14;29.20;47.30
21275;DHT22;36472;52.170;20.884;2023-05-19T08:59:45;29.30;47.30
21275;DHT22;36472;52.170;20.884;2023-05-19T09:02:15;29.30;47.60
21275;DHT22;36472;52.170;20.884;2023-05-19T09:04:46;29.30;47.90
21275;DHT22;36472;52.170;20.884;2023-05-19T09:07:16;29.40;47.50
21275;DHT22;36472;52.170;20.884;2023-05-19T09:09:46;29.50;48.20
21275;DHT22;36472;52.170;20.884;2023-05-19T09:12:17;29.50;47.20
21275;DHT22;36472;52.170;20.884;2023-05-19T09:14:47;29.50;46.80
21275;DHT22;36472;52.170;20.884;2023-05-19T09:17:16;29.50;46.90
21275;DHT22;36472;52.170;20.884;2023-05-19T09:19:45;29.60;47.60
21275;DHT22;36472;52.170;20.884;2023-05-19T09:22:15;29.50;47.20
21275;DHT22;36472;52.170;20.884;2023-05-19T09:24:46;29.60;46.60
21275;DHT22;36472;52.170;20.884;2023-05-19T09:27:20;29.60;47.10
21275;DHT22;36472;52.170;20.884;2023-05-19T09:29:51;29.60;46.40
21275;DHT22;36472;52.170;20.884;2023-05-19T09:32:24;29.60;46.80
21275;DHT22;36472;52.170;20.884;2023-05-19T09:34:54;29.60;46.50
21275;DHT22;36472;52.170;20.884;2023-05-19T09:37:23;29.60;46.80
21275;DHT22;36472;52.170;20.884;2023-05-19T09:39:55;29.60;47.10
21275;DHT22;36472;52.170;20.884;2023-05-19T09:42:26;29.70;46.50
21275;DHT22;36472;52.170;20.884;2023-05-19T09:45:00;29.80;47.10
21275;DHT22;36472;52.170;20.884;2023-05-19T09:47:34;29.70;46.10
21275;DHT22;36472;52.170;20.884;2023-05-19T09:50:06;29.80;46.70
21275;DHT22;36472;52.170;20.884;2023-05-19T09:52:37;29.80;46.50
21275;DHT22;36472;52.170;20.884;2023-05-19T09:55:09;29.80;46.20
21275;DHT22;36472;52.170;20.884;2023-05-19T09:57:40;29.80;46.90
21275;DHT22;36472;52.170;20.884;2023-05-19T10:00:13;29.80;47.20
21275;DHT22;36472;52.170;20.884;2023-05-19T10:02:44;29.90;46.40
21275;DHT22;36472;52.170;20.884;2023-05-19T10:05:16;29.90;46.60
21275;DHT22;36472;52.170;20.884;2023-05-19T10:07:49;29.90;46.30
21275;DHT22;36472;52.170;20.884;2023-05-19T10:10:20;29.90;46.60
21275;DHT22;36472;52.170;20.884;2023-05-19T10:12:51;29.90;46.40
21275;DHT22;36472;52.170;20.884;2023-05-19T10:15:22;29.90;45.80
21275;DHT22;36472;52.170;20.884;2023-05-19T10:17:53;30.00;46.30
21275;DHT22;36472;52.170;20.884;2023-05-19T10:20:25;30.00;46.10
21275;DHT22;36472;52.170;20.884;2023-05-19T10:22:54;30.00;46.00
21275;DHT22;36472;52.170;20.884;2023-05-19T10:25:24;30.00;46.00
21275;DHT22;36472;52.170;20.884;2023-05-19T10:27:57;30.10;46.50
21275;DHT22;36472;52.170;20.884;2023-05-19T10:30:33;30.10;46.50
21275;DHT22;36472;52.170;20.884;2023-05-19T10:33:07;30.10;46.70
21275;DHT22;36472;52.170;20.884;2023-05-19T10:38:49;30.10;46.70
21275;DHT22;36472;52.170;20.884;2023-05-19T10:41:28;30.20;46.00
21275;DHT22;36472;52.170;20.884;2023-05-19T10:44:10;30.30;45.80
21275;DHT22;36472;52.170;20.884;2023-05-19T10:46:44;30.30;46.20
21275;DHT22;36472;52.170;20.884;2023-05-19T10:49:19;30.40;46.40
21275;DHT22;36472;52.170;20.884;2023-05-19T10:51:50;30.40;46.00
21275;DHT22;36472;52.170;20.884;2023-05-19T10:54:41;30.50;46.40
21275;DHT22;36472;52.170;20.884;2023-05-19T10:57:14;30.60;46.00
21275;DHT22;36472;52.170;20.884;2023-05-19T10:59:45;30.60;45.60
21275;DHT22;36472;52.170;20.884;2023-05-19T11:02:35;30.70;45.30
21275;DHT22;36472;52.170;20.884;2023-05-19T11:05:08;30.70;45.40
21275;DHT22;36472;52.170;20.884;2023-05-19T11:07:41;30.70;45.60
21275;DHT22;36472;52.170;20.884;2023-05-19T11:10:12;30.70;46.00
21275;DHT22;36472;52.170;20.884;2023-05-19T11:12:43;30.70;45.10
21275;DHT22;36472;52.170;20.884;2023-05-19T11:15:14;30.60;45.20
21275;DHT22;36472;52.170;20.884;2023-05-19T11:17:46;30.60;45.10
21275;DHT22;36472;52.170;20.884;2023-05-19T11:20:21;30.70;45.30
21275;DHT22;36472;52.170;20.884;2023-05-19T11:23:05;30.70;45.40
21275;DHT22;36472;52.170;20.884;2023-05-19T11:25:43;30.80;45.50
21275;DHT22;36472;52.170;20.884;2023-05-19T11:28:15;30.80;44.90
21275;DHT22;36472;52.170;20.884;2023-05-19T11:30:48;30.80;45.20
21275;DHT22;36472;52.170;20.884;2023-05-19T11:33:19;30.80;44.90
21275;DHT22;36472;52.170;20.884;2023-05-19T11:35:54;30.90;45.20
21275;DHT22;36472;52.170;20.884;2023-05-19T11:38:27;30.90;45.60
21275;DHT22;36472;52.170;20.884;2023-05-19T11:40:57;30.90;45.60
21275;DHT22;36472;52.170;20.884;2023-05-19T11:43:26;31.00;45.00
21275;DHT22;36472;52.170;20.884;2023-05-19T11:45:56;31.00;44.90
21275;DHT22;36472;52.170;20.884;2023-05-19T11:48:25;31.00;45.10
21275;DHT22;36472;52.170;20.884;2023-05-19T11:50:59;31.00;45.20
21275;DHT22;36472;52.170;20.884;2023-05-19T11:53:28;31.00;45.50
21275;DHT22;36472;52.170;20.884;2023-05-19T11:56:02;31.10;44.90
21275;DHT22;36472;52.170;20.884;2023-05-19T11:58:32;31.00;45.00
21275;DHT22;36472;52.170;20.884;2023-05-19T12:01:04;31.00;44.60
21275;DHT22;36472;52.170;20.884;2023-05-19T12:03:33;31.00;45.00
21275;DHT22;36472;52.170;20.884;2023-05-19T12:06:03;31.00;44.80
21275;DHT22;36472;52.170;20.884;2023-05-19T12:08:35;31.00;44.70
21275;DHT22;36472;52.170;20.884;2023-05-19T12:11:05;31.00;45.10
21275;DHT22;36472;52.170;20.884;2023-05-19T12:13:35;31.10;44.90
21275;DHT22;36472;52.170;20.884;2023-05-19T12:16:07;31.10;45.20
21275;DHT22;36472;52.170;20.884;2023-05-19T12:18:37;31.00;44.70
21275;DHT22;36472;52.170;20.884;2023-05-19T12:21:06;31.10;45.00
21275;DHT22;36472;52.170;20.884;2023-05-19T12:23:36;31.10;45.00
21275;DHT22;36472;52.170;20.884;2023-05-19T12:26:06;31.10;45.10
21275;DHT22;36472;52.170;20.884;2023-05-19T12:28:36;31.10;44.50
21275;DHT22;36472;52.170;20.884;2023-05-19T12:31:06;31.10;44.90
21275;DHT22;36472;52.170;20.884;2023-05-19T12:33:35;31.10;44.90
21275;DHT22;36472;52.170;20.884;2023-05-19T12:36:05;31.10;44.60
21275;DHT22;36472;52.170;20.884;2023-05-19T12:38:36;31.10;45.60
21275;DHT22;36472;52.170;20.884;2023-05-19T12:41:05;31.20;45.10
21275;DHT22;36472;52.170;20.884;2023-05-19T12:43:35;31.20;45.20
21275;DHT22;36472;52.170;20.884;2023-05-19T12:46:12;31.20;45.50
21275;DHT22;36472;52.170;20.884;2023-05-19T12:48:43;31.30;45.30
21275;DHT22;36472;52.170;20.884;2023-05-19T12:51:15;31.30;45.20
21275;DHT22;36472;52.170;20.884;2023-05-19T12:53:46;31.30;44.80
21275;DHT22;36472;52.170;20.884;2023-05-19T12:56:17;31.30;44.80
21275;DHT22;36472;52.170;20.884;2023-05-19T12:58:52;31.30;45.00
21275;DHT22;36472;52.170;20.884;2023-05-19T13:01:23;31.30;45.30
21275;DHT22;36472;52.170;20.884;2023-05-19T13:03:53;31.40;44.50
21275;DHT22;36472;52.170;20.884;2023-05-19T13:06:22;31.40;44.80
21275;DHT22;36472;52.170;20.884;2023-05-19T13:08:51;31.40;44.60
21275;DHT22;36472;52.170;20.884;2023-05-19T13:11:20;31.40;44.60
21275;DHT22;36472;52.170;20.884;2023-05-19T13:13:49;31.40;44.90
21275;DHT22;36472;52.170;20.884;2023-05-19T13:16:18;31.40;44.30
21275;DHT22;36472;52.170;20.884;2023-05-19T13:18:48;31.30;44.50
21275;DHT22;36472;52.170;20.884;2023-05-19T13:21:17;31.30;44.30
21275;DHT22;36472;52.170;20.884;2023-05-19T13:23:47;31.30;44.90
21275;DHT22;36472;52.170;20.884;2023-05-19T13:26:15;31.20;44.60
21275;DHT22;36472;52.170;20.884;2023-05-19T13:28:45;31.20;44.90
21275;DHT22;36472;52.170;20.884;2023-05-19T13:31:14;31.20;45.60
21275;DHT22;36472;52.170;20.884;2023-05-19T13:33:43;31.20;45.00
21275;DHT22;36472;52.170;20.884;2023-05-19T13:36:13;31.30;45.50
21275;DHT22;36472;52.170;20.884;2023-05-19T13:38:42;31.30;45.20
21275;DHT22;36472;52.170;20.884;2023-05-19T13:41:11;31.30;45.10
21275;DHT22;36472;52.170;20.884;2023-05-19T13:44:00;31.30;45.30
21275;DHT22;36472;52.170;20.884;2023-05-19T13:46:29;31.40;45.20
21275;DHT22;36472;52.170;20.884;2023-05-19T13:49:11;31.30;45.30
21275;DHT22;36472;52.170;20.884;2023-05-19T13:51:42;31.30;44.70
21275;DHT22;36472;52.170;20.884;2023-05-19T13:54:11;31.30;44.70
21275;DHT22;36472;52.170;20.884;2023-05-19T13:56:41;31.30;45.10
21275;DHT22;36472;52.170;20.884;2023-05-19T13:59:12;31.30;45.40
21275;DHT22;36472;52.170;20.884;2023-05-19T14:01:42;31.20;44.80
21275;DHT22;36472;52.170;20.884;2023-05-19T14:04:12;31.20;44.70
21275;DHT22;36472;52.170;20.884;2023-05-19T14:06:43;31.20;45.20
21275;DHT22;36472;52.170;20.884;2023-05-19T14:09:12;31.20;45.00
21275;DHT22;36472;52.170;20.884;2023-05-19T14:11:41;31.20;45.40
21275;DHT22;36472;52.170;20.884;2023-05-19T14:14:11;31.20;45.10
21275;DHT22;36472;52.170;20.884;2023-05-19T14:16:40;31.30;45.10
21275;DHT22;36472;52.170;20.884;2023-05-19T14:19:09;31.30;45.20
21275;DHT22;36472;52.170;20.884;2023-05-19T14:21:38;31.30;45.30
21275;DHT22;36472;52.170;20.884;2023-05-19T14:24:09;31.20;45.40
21275;DHT22;36472;52.170;20.884;2023-05-19T14:26:38;31.20;45.00
21275;DHT22;36472;52.170;20.884;2023-05-19T14:29:07;31.20;45.30
21275;DHT22;36472;52.170;20.884;2023-05-19T14:31:36;31.20;45.10
21275;DHT22;36472;52.170;20.884;2023-05-19T14:34:05;31.20;45.50
21275;DHT22;36472;52.170;20.884;2023-05-19T14:36:34;31.20;45.80
21275;DHT22;36472;52.170;20.884;2023-05-19T14:39:03;31.20;45.60
21275;DHT22;36472;52.170;20.884;2023-05-19T14:41:33;31.20;45.30
21275;DHT22;36472;52.170;20.884;2023-05-19T14:44:03;31.20;45.60
21275;DHT22;36472;52.170;20.884;2023-05-19T14:46:33;31.20;45.10
21275;DHT22;36472;52.170;20.884;2023-05-19T14:49:02;31.20;45.10
21275;DHT22;36472;52.170;20.884;2023-05-19T14:51:32;31.20;45.30
21275;DHT22;36472;52.170;20.884;2023-05-19T14:54:01;31.20;45.30
21275;DHT22;36472;52.170;20.884;2023-05-19T14:56:32;31.20;45.50
21275;DHT22;36472;52.170;20.884;2023-05-19T14:59:01;31.20;45.50
21275;DHT22;36472;52.170;20.884;2023-05-19T15:01:31;31.20;45.50
21275;DHT22;36472;52.170;20.884;2023-05-19T15:04:00;31.20;45.60
21275;DHT22;36472;52.170;20.884;2023-05-19T15:06:29;31.20;46.30
21275;DHT22;36472;52.170;20.884;2023-05-19T15:08:58;31.20;45.30
21275;DHT22;36472;52.170;20.884;2023-05-19T15:11:27;31.20;46.00
21275;DHT22;36472;52.170;20.884;2023-05-19T15:13:58;31.20;45.40
21275;DHT22;36472;52.170;20.884;2023-05-19T15:16:26;31.20;45.30
21275;DHT22;36472;52.170;20.884;2023-05-19T15:18:56;31.20;45.30
21275;DHT22;36472;52.170;20.884;2023-05-19T15:21:25;31.20;45.80
21275;DHT22;36472;52.170;20.884;2023-05-19T15:23:54;31.20;46.20
21275;DHT22;36472;52.170;20.884;2023-05-19T15:26:23;31.20;45.90
21275;DHT22;36472;52.170;20.884;2023-05-19T15:28:57;31.20;45.80
21275;DHT22;36472;52.170;20.884;2023-05-19T15:31:26;31.20;45.50
21275;DHT22;36472;52.170;20.884;2023-05-19T15:33:55;31.20;45.90
21275;DHT22;36472;52.170;20.884;2023-05-19T15:36:24;31.20;46.10
21275;DHT22;36472;52.170;20.884;2023-05-19T15:38:53;31.20;46.40
21275;DHT22;36472;52.170;20.884;2023-05-19T15:41:22;31.20;46.40
21275;DHT22;36472;52.170;20.884;2023-05-19T15:43:52;31.20;46.30